sensor_id;sensor_type;location;lat;lon;timestamp;pressure;altitude;pressure_sealevel;temperature;humidity
80382;BME280;69692;55.820;37.490;2024-01-30T00:02:14;100912.16;;;0.04;82.89
80382;BME280;69692;55.820;37.490;2024-01-30T00:04:40;100913.91;;;-0.06;82.96
80382;BME280;69692;55.820;37.490;2024-01-30T00:07:06;100909.19;;;-0.03;82.51
80382;BME280;69692;55.820;37.490;2024-01-30T00:09:31;100909.97;;;-0.12;82.96
80382;BME280;69692;55.820;37.490;2024-01-30T00:11:57;100909.72;;;-0.09;83.61
80382;BME280;69692;55.820;37.490;2024-01-30T00:14:23;100914.72;;;-0.06;83.35
80382;BME280;69692;55.820;37.490;2024-01-30T00:16:50;100914.44;;;-0.12;83.73
80382;BME280;69692;55.820;37.490;2024-01-30T00:19:17;100904.16;;;-0.06;83.85
80382;BME280;69692;55.820;37.490;2024-01-30T00:21:43;100896.22;;;-0.06;82.96
80382;BME280;69692;55.820;37.490;2024-01-30T00:24:09;100902.28;;;0.06;83.20
80382;BME280;69692;55.820;37.490;2024-01-30T00:26:35;100898.38;;;0.10;83.12
80382;BME280;69692;55.820;37.490;2024-01-30T00:29:01;100898.34;;;0.01;83.52
80382;BME280;69692;55.820;37.490;2024-01-30T00:31:27;100894.28;;;-0.04;82.69
80382;BME280;69692;55.820;37.490;2024-01-30T00:33:53;100899.28;;;-0.01;83.01
80382;BME280;69692;55.820;37.490;2024-01-30T00:36:19;100894.00;;;-0.01;82.65
80382;BME280;69692;55.820;37.490;2024-01-30T00:38:44;100893.94;;;0.11;82.74
80382;BME280;69692;55.820;37.490;2024-01-30T00:41:10;100890.19;;;0.13;82.78
80382;BME280;69692;55.820;37.490;2024-01-30T00:43:36;100894.50;;;0.14;82.52
80382;BME280;69692;55.820;37.490;2024-01-30T00:46:03;100891.75;;;0.16;81.79
80382;BME280;69692;55.820;37.490;2024-01-30T00:48:29;100894.41;;;0.25;82.48
80382;BME280;69692;55.820;37.490;2024-01-30T00:50:54;100891.50;;;0.28;81.65
80382;BME280;69692;55.820;37.490;2024-01-30T00:53:21;100884.94;;;0.23;82.47
80382;BME280;69692;55.820;37.490;2024-01-30T00:55:47;100890.22;;;0.23;82.10
80382;BME280;69692;55.820;37.490;2024-01-30T00:58:13;100900.53;;;0.26;81.53
80382;BME280;69692;55.820;37.490;2024-01-30T01:00:39;100891.75;;;0.16;82.29
80382;BME280;69692;55.820;37.490;2024-01-30T01:03:05;100891.59;;;0.17;83.01
80382;BME280;69692;55.820;37.490;2024-01-30T01:05:31;100892.59;;;0.16;82.70
80382;BME280;69692;55.820;37.490;2024-01-30T01:07:57;100891.47;;;0.19;82.89
80382;BME280;69692;55.820;37.490;2024-01-30T01:10:23;100881.16;;;0.16;82.57
80382;BME280;69692;55.820;37.490;2024-01-30T01:12:49;100887.66;;;0.12;83.06
80382;BME280;69692;55.820;37.490;2024-01-30T01:15:15;100878.63;;;0.14;82.78
80382;BME280;69692;55.820;37.490;2024-01-30T01:17:41;100868.28;;;0.02;83.05
80382;BME280;69692;55.820;37.490;2024-01-30T01:20:07;100882.78;;;0.07;82.86
80382;BME280;69692;55.820;37.490;2024-01-30T01:22:34;100876.66;;;0.07;82.61
80382;BME280;69692;55.820;37.490;2024-01-30T01:25:00;100874.56;;;0.01;82.85
80382;BME280;69692;55.820;37.490;2024-01-30T01:27:29;100878.06;;;0.11;82.82
80382;BME280;69692;55.820;37.490;2024-01-30T01:29:57;100875.13;;;0.14;82.78
80382;BME280;69692;55.820;37.490;2024-01-30T01:32:23;100871.00;;;0.21;82.25
80382;BME280;69692;55.820;37.490;2024-01-30T01:34:49;100861.94;;;0.23;82.05
80382;BME280;69692;55.820;37.490;2024-01-30T01:37:15;100869.75;;;0.25;83.16
80382;BME280;69692;55.820;37.490;2024-01-30T01:39:41;100855.28;;;0.29;82.73
80382;BME280;69692;55.820;37.490;2024-01-30T01:42:07;100850.56;;;0.33;81.75
80382;BME280;69692;55.820;37.490;2024-01-30T01:44:32;100833.84;;;0.42;81.16
80382;BME280;69692;55.820;37.490;2024-01-30T01:46:58;100848.06;;;0.41;81.95
80382;BME280;69692;55.820;37.490;2024-01-30T01:49:25;100855.59;;;0.36;81.43
80382;BME280;69692;55.820;37.490;2024-01-30T01:51:55;100855.88;;;0.33;81.73
80382;BME280;69692;55.820;37.490;2024-01-30T01:54:23;100857.13;;;0.38;82.30
80382;BME280;69692;55.820;37.490;2024-01-30T01:56:52;100850.19;;;0.47;81.55
80382;BME280;69692;55.820;37.490;2024-01-30T01:59:20;100848.63;;;0.44;81.42
80382;BME280;69692;55.820;37.490;2024-01-30T02:01:46;100850.34;;;0.45;81.67
80382;BME280;69692;55.820;37.490;2024-01-30T02:04:16;100851.59;;;0.51;81.67
80382;BME280;69692;55.820;37.490;2024-01-30T02:06:43;100852.25;;;0.43;81.44
80382;BME280;69692;55.820;37.490;2024-01-30T02:09:11;100846.13;;;0.43;81.34
80382;BME280;69692;55.820;37.490;2024-01-30T02:11:37;100861.75;;;0.46;81.88
80382;BME280;69692;55.820;37.490;2024-01-30T02:14:06;100850.44;;;0.34;82.66
80382;BME280;69692;55.820;37.490;2024-01-30T02:16:32;100856.72;;;0.43;82.13
80382;BME280;69692;55.820;37.490;2024-01-30T02:18:58;100846.72;;;0.46;82.09
80382;BME280;69692;55.820;37.490;2024-01-30T02:21:34;100850.56;;;0.42;82.10
80382;BME280;69692;55.820;37.490;2024-01-30T02:24:02;100844.19;;;0.45;81.74
80382;BME280;69692;55.820;37.490;2024-01-30T02:26:29;100840.00;;;0.42;82.21
80382;BME280;69692;55.820;37.490;2024-01-30T02:28:55;100842.25;;;0.56;81.45
80382;BME280;69692;55.820;37.490;2024-01-30T02:31:21;100848.81;;;0.52;81.65
80382;BME280;69692;55.820;37.490;2024-01-30T02:33:47;100847.53;;;0.56;81.76
80382;BME280;69692;55.820;37.490;2024-01-30T02:36:13;100839.91;;;0.63;81.95
80382;BME280;69692;55.820;37.490;2024-01-30T02:38:41;100836.03;;;0.77;80.98
80382;BME280;69692;55.820;37.490;2024-01-30T02:41:07;100847.16;;;0.71;81.06
80382;BME280;69692;55.820;37.490;2024-01-30T02:43:33;100835.88;;;0.69;81.32
80382;BME280;69692;55.820;37.490;2024-01-30T02:45:59;100836.97;;;0.66;82.23
80382;BME280;69692;55.820;37.490;2024-01-30T02:48:26;100835.03;;;0.68;81.75
80382;BME280;69692;55.820;37.490;2024-01-30T02:50:52;100834.34;;;0.76;81.04
80382;BME280;69692;55.820;37.490;2024-01-30T02:53:18;100842.00;;;0.69;81.19
80382;BME280;69692;55.820;37.490;2024-01-30T02:55:44;100845.06;;;0.74;80.91
80382;BME280;69692;55.820;37.490;2024-01-30T02:58:10;100840.22;;;0.79;80.87
80382;BME280;69692;55.820;37.490;2024-01-30T03:00:36;100845.50;;;0.79;81.09
80382;BME280;69692;55.820;37.490;2024-01-30T03:03:02;100845.09;;;0.84;81.52
80382;BME280;69692;55.820;37.490;2024-01-30T03:05:28;100845.06;;;0.74;81.00
80382;BME280;69692;55.820;37.490;2024-01-30T03:07:54;100857.34;;;0.75;81.36
80382;BME280;69692;55.820;37.490;2024-01-30T03:10:21;100844.50;;;0.71;81.36
80382;BME280;69692;55.820;37.490;2024-01-30T03:12:47;100851.09;;;0.76;81.79
80382;BME280;69692;55.820;37.490;2024-01-30T03:15:13;100863.88;;;0.71;81.53
80382;BME280;69692;55.820;37.490;2024-01-30T03:17:39;100855.97;;;0.81;81.07
80382;BME280;69692;55.820;37.490;2024-01-30T03:20:05;100867.09;;;0.84;80.58
80382;BME280;69692;55.820;37.490;2024-01-30T03:22:32;100873.13;;;0.77;81.39
80382;BME280;69692;55.820;37.490;2024-01-30T03:24:58;100869.34;;;0.79;81.42
80382;BME280;69692;55.820;37.490;2024-01-30T03:27:24;100872.53;;;0.64;82.26
80382;BME280;69692;55.820;37.490;2024-01-30T03:29:50;100868.91;;;0.74;82.08
80382;BME280;69692;55.820;37.490;2024-01-30T03:32:16;100862.25;;;0.80;82.54
80382;BME280;69692;55.820;37.490;2024-01-30T03:34:41;100853.59;;;0.87;82.02
80382;BME280;69692;55.820;37.490;2024-01-30T03:37:07;100849.97;;;0.88;81.44
80382;BME280;69692;55.820;37.490;2024-01-30T03:39:33;100853.44;;;0.89;81.33
80382;BME280;69692;55.820;37.490;2024-01-30T03:41:59;100859.47;;;0.91;80.79
80382;BME280;69692;55.820;37.490;2024-01-30T03:44:26;100872.56;;;0.93;81.34
80382;BME280;69692;55.820;37.490;2024-01-30T03:46:52;100870.88;;;0.82;81.45
80382;BME280;69692;55.820;37.490;2024-01-30T03:49:18;100873.84;;;1.37;83.96
80382;BME280;69692;55.820;37.490;2024-01-30T03:51:44;100868.25;;;2.79;92.52
80382;BME280;69692;55.820;37.490;2024-01-30T03:54:10;100871.78;;;2.52;77.24
80382;BME280;69692;55.820;37.490;2024-01-30T03:56:36;100870.47;;;2.01;76.58
80382;BME280;69692;55.820;37.490;2024-01-30T03:59:02;100864.19;;;3.64;88.14
80382;BME280;69692;55.820;37.490;2024-01-30T04:01:28;100865.31;;;5.14;83.21
80382;BME280;69692;55.820;37.490;2024-01-30T04:03:54;100876.81;;;5.63;75.34
80382;BME280;69692;55.820;37.490;2024-01-30T04:06:21;100863.56;;;4.64;66.81
80382;BME280;69692;55.820;37.490;2024-01-30T04:08:46;100872.81;;;3.40;70.89
80382;BME280;69692;55.820;37.490;2024-01-30T04:11:12;100878.47;;;2.28;74.62
80382;BME280;69692;55.820;37.490;2024-01-30T04:13:38;100881.00;;;1.83;77.00
80382;BME280;69692;55.820;37.490;2024-01-30T04:16:04;100870.75;;;1.51;78.65
80382;BME280;69692;55.820;37.490;2024-01-30T04:18:31;100883.84;;;1.33;79.39
80382;BME280;69692;55.820;37.490;2024-01-30T04:20:57;100863.09;;;1.09;80.04
80382;BME280;69692;55.820;37.490;2024-01-30T04:23:23;100871.16;;;1.17;80.26
80382;BME280;69692;55.820;37.490;2024-01-30T04:25:49;100874.38;;;1.11;81.04
80382;BME280;69692;55.820;37.490;2024-01-30T04:28:15;100865.19;;;1.06;81.48
80382;BME280;69692;55.820;37.490;2024-01-30T04:30:41;100854.72;;;0.95;81.58
80382;BME280;69692;55.820;37.490;2024-01-30T04:33:07;100854.44;;;0.98;81.46
80382;BME280;69692;55.820;37.490;2024-01-30T04:35:33;100861.69;;;0.96;81.80
80382;BME280;69692;55.820;37.490;2024-01-30T04:37:58;100860.00;;;0.85;82.27
80382;BME280;69692;55.820;37.490;2024-01-30T04:40:24;100871.88;;;1.00;81.80
80382;BME280;69692;55.820;37.490;2024-01-30T04:42:50;100874.09;;;0.95;81.61
80382;BME280;69692;55.820;37.490;2024-01-30T04:45:16;100879.81;;;1.00;82.45
80382;BME280;69692;55.820;37.490;2024-01-30T04:47:42;100878.00;;;0.91;82.30
80382;BME280;69692;55.820;37.490;2024-01-30T04:50:09;100878.41;;;0.96;82.81
80382;BME280;69692;55.820;37.490;2024-01-30T04:52:36;100875.09;;;0.94;82.88
80382;BME280;69692;55.820;37.490;2024-01-30T04:55:02;100869.63;;;0.96;82.11
80382;BME280;69692;55.820;37.490;2024-01-30T04:57:30;100866.00;;;0.87;82.72
80382;BME280;69692;55.820;37.490;2024-01-30T04:59:57;100856.97;;;0.89;82.51
80382;BME280;69692;55.820;37.490;2024-01-30T05:02:23;100868.53;;;0.98;82.12
80382;BME280;69692;55.820;37.490;2024-01-30T05:04:49;100850.09;;;0.87;82.47
80382;BME280;69692;55.820;37.490;2024-01-30T05:07:14;100869.78;;;0.94;82.20
80382;BME280;69692;55.820;37.490;2024-01-30T05:09:40;100859.59;;;0.99;82.16
80382;BME280;69692;55.820;37.490;2024-01-30T05:12:07;100859.31;;;1.02;82.04
80382;BME280;69692;55.820;37.490;2024-01-30T05:14:33;100869.91;;;1.02;81.68
80382;BME280;69692;55.820;37.490;2024-01-30T05:16:58;100873.25;;;0.95;83.06
80382;BME280;69692;55.820;37.490;2024-01-30T05:19:24;100876.75;;;0.95;82.87
80382;BME280;69692;55.820;37.490;2024-01-30T05:21:50;100882.47;;;1.00;83.09
80382;BME280;69692;55.820;37.490;2024-01-30T05:24:16;100888.59;;;1.01;82.67
80382;BME280;69692;55.820;37.490;2024-01-30T05:26:42;100873.97;;;1.06;81.97
80382;BME280;69692;55.820;37.490;2024-01-30T05:29:08;100887.47;;;1.03;82.21
80382;BME280;69692;55.820;37.490;2024-01-30T05:31:34;100895.31;;;1.05;82.39
80382;BME280;69692;55.820;37.490;2024-01-30T05:34:00;100880.38;;;1.04;82.16
80382;BME280;69692;55.820;37.490;2024-01-30T05:36:26;100891.56;;;1.07;82.51
80382;BME280;69692;55.820;37.490;2024-01-30T05:38:52;100875.50;;;1.09;82.80
80382;BME280;69692;55.820;37.490;2024-01-30T05:41:19;100878.28;;;1.17;82.44
80382;BME280;69692;55.820;37.490;2024-01-30T05:43:46;100876.59;;;1.16;82.07
80382;BME280;69692;55.820;37.490;2024-01-30T05:46:13;100880.66;;;1.10;82.18
80382;BME280;69692;55.820;37.490;2024-01-30T05:48:39;100881.38;;;1.12;82.36
80382;BME280;69692;55.820;37.490;2024-01-30T05:51:07;100886.94;;;1.09;82.26
80382;BME280;69692;55.820;37.490;2024-01-30T05:53:33;100900.19;;;1.09;83.01
80382;BME280;69692;55.820;37.490;2024-01-30T05:56:03;100902.84;;;1.09;83.23
80382;BME280;69692;55.820;37.490;2024-01-30T05:58:29;100904.81;;;1.07;82.28
80382;BME280;69692;55.820;37.490;2024-01-30T06:00:57;100903.13;;;1.06;82.51
80382;BME280;69692;55.820;37.490;2024-01-30T06:03:23;100906.19;;;1.11;83.33
80382;BME280;69692;55.820;37.490;2024-01-30T06:05:49;100909.53;;;1.13;82.92
80382;BME280;69692;55.820;37.490;2024-01-30T06:08:15;100915.81;;;1.12;82.77
80382;BME280;69692;55.820;37.490;2024-01-30T06:10:41;100914.16;;;1.11;82.54
80382;BME280;69692;55.820;37.490;2024-01-30T06:13:08;100917.19;;;1.16;82.94
80382;BME280;69692;55.820;37.490;2024-01-30T06:15:34;100912.88;;;1.15;83.19
80382;BME280;69692;55.820;37.490;2024-01-30T06:18:00;100908.03;;;1.21;83.24
80382;BME280;69692;55.820;37.490;2024-01-30T06:20:26;100913.84;;;1.14;82.42
80382;BME280;69692;55.820;37.490;2024-01-30T06:22:51;100908.56;;;1.14;83.04
80382;BME280;69692;55.820;37.490;2024-01-30T06:25:17;100922.25;;;1.19;83.13
80382;BME280;69692;55.820;37.490;2024-01-30T06:27:43;100933.69;;;1.20;83.30
80382;BME280;69692;55.820;37.490;2024-01-30T06:30:10;100918.47;;;1.22;82.79
80382;BME280;69692;55.820;37.490;2024-01-30T06:32:36;100918.06;;;1.27;82.24
80382;BME280;69692;55.820;37.490;2024-01-30T06:35:02;100914.72;;;1.25;82.43
80382;BME280;69692;55.820;37.490;2024-01-30T06:37:29;100926.28;;;1.33;82.58
80382;BME280;69692;55.820;37.490;2024-01-30T06:39:55;100925.59;;;1.41;81.94
80382;BME280;69692;55.820;37.490;2024-01-30T06:42:21;100926.56;;;1.40;81.82
80382;BME280;69692;55.820;37.490;2024-01-30T06:44:47;100919.03;;;1.45;82.02
80382;BME280;69692;55.820;37.490;2024-01-30T06:47:13;100929.75;;;1.34;82.42
80382;BME280;69692;55.820;37.490;2024-01-30T06:49:39;100942.75;;;1.37;82.16
80382;BME280;69692;55.820;37.490;2024-01-30T06:52:08;100939.44;;;1.35;82.59
80382;BME280;69692;55.820;37.490;2024-01-30T06:54:34;100930.50;;;1.36;82.02
80382;BME280;69692;55.820;37.490;2024-01-30T06:57:00;100926.00;;;1.46;81.93
80382;BME280;69692;55.820;37.490;2024-01-30T06:59:26;100930.06;;;1.40;82.27
80382;BME280;69692;55.820;37.490;2024-01-30T07:01:52;100933.00;;;1.37;82.02
80382;BME280;69692;55.820;37.490;2024-01-30T07:04:18;100937.72;;;1.43;82.63
80382;BME280;69692;55.820;37.490;2024-01-30T07:06:44;100944.16;;;1.41;81.81
80382;BME280;69692;55.820;37.490;2024-01-30T07:09:10;100945.97;;;1.40;82.79
80382;BME280;69692;55.820;37.490;2024-01-30T07:11:36;100947.94;;;1.38;82.55
80382;BME280;69692;55.820;37.490;2024-01-30T07:14:02;100941.66;;;1.49;81.96
80382;BME280;69692;55.820;37.490;2024-01-30T07:16:31;100951.81;;;1.44;81.69
80382;BME280;69692;55.820;37.490;2024-01-30T07:18:57;100947.66;;;1.51;81.74
80382;BME280;69692;55.820;37.490;2024-01-30T07:21:23;100951.94;;;1.62;81.82
80382;BME280;69692;55.820;37.490;2024-01-30T07:23:56;100955.44;;;1.62;81.49
80382;BME280;69692;55.820;37.490;2024-01-30T07:26:22;100949.16;;;1.63;81.40
80382;BME280;69692;55.820;37.490;2024-01-30T07:28:47;100953.78;;;1.71;80.92
80382;BME280;69692;55.820;37.490;2024-01-30T07:31:13;100955.44;;;1.62;81.69
80382;BME280;69692;55.820;37.490;2024-01-30T07:33:39;100950.72;;;1.56;81.06
80382;BME280;69692;55.820;37.490;2024-01-30T07:36:05;100962.00;;;1.58;81.77
80382;BME280;69692;55.820;37.490;2024-01-30T07:38:32;100957.84;;;1.65;81.63
80382;BME280;69692;55.820;37.490;2024-01-30T07:40:58;100963.69;;;1.59;81.31
80382;BME280;69692;55.820;37.490;2024-01-30T07:43:24;100972.91;;;1.55;81.99
80382;BME280;69692;55.820;37.490;2024-01-30T07:45:50;100968.00;;;1.60;81.09
80382;BME280;69692;55.820;37.490;2024-01-30T07:48:16;100968.59;;;1.64;81.55
80382;BME280;69692;55.820;37.490;2024-01-30T07:50:43;100968.59;;;1.64;81.61
80382;BME280;69692;55.820;37.490;2024-01-30T07:53:08;100963.56;;;1.70;81.00
80382;BME280;69692;55.820;37.490;2024-01-30T07:58:39;100964.25;;;1.72;80.81
80382;BME280;69692;55.820;37.490;2024-01-30T08:01:05;100965.50;;;1.68;80.96
80382;BME280;69692;55.820;37.490;2024-01-30T08:03:31;100962.31;;;1.65;81.59
80382;BME280;69692;55.820;37.490;2024-01-30T08:05:56;100965.50;;;1.68;81.04
80382;BME280;69692;55.820;37.490;2024-01-30T08:08:22;100959.66;;;1.65;81.17
80382;BME280;69692;55.820;37.490;2024-01-30T08:10:48;100964.25;;;1.82;81.48
80382;BME280;69692;55.820;37.490;2024-01-30T08:13:15;100962.72;;;1.79;80.51
80382;BME280;69692;55.820;37.490;2024-01-30T08:15:41;100957.81;;;1.75;80.43
80382;BME280;69692;55.820;37.490;2024-01-30T08:18:07;100959.47;;;1.76;81.43
80382;BME280;69692;55.820;37.490;2024-01-30T08:20:33;100957.53;;;1.78;81.16
80382;BME280;69692;55.820;37.490;2024-01-30T08:22:59;100968.97;;;1.78;80.99
80382;BME280;69692;55.820;37.490;2024-01-30T08:25:26;100972.06;;;1.74;80.93
80382;BME280;69692;55.820;37.490;2024-01-30T08:27:52;100971.22;;;1.73;81.11
80382;BME280;69692;55.820;37.490;2024-01-30T08:30:17;100975.53;;;1.74;81.32
80382;BME280;69692;55.820;37.490;2024-01-30T08:32:43;100969.56;;;1.72;82.03
80382;BME280;69692;55.820;37.490;2024-01-30T08:35:09;100960.34;;;1.67;81.25
80382;BME280;69692;55.820;37.490;2024-01-30T08:37:35;100961.19;;;1.67;81.96
80382;BME280;69692;55.820;37.490;2024-01-30T08:40:01;100965.09;;;1.73;81.33
80382;BME280;69692;55.820;37.490;2024-01-30T08:42:29;100957.22;;;1.91;80.84
80382;BME280;69692;55.820;37.490;2024-01-30T08:44:55;100949.13;;;1.92;80.32
80382;BME280;69692;55.820;37.490;2024-01-30T08:47:21;100955.69;;;1.98;80.06
80382;BME280;69692;55.820;37.490;2024-01-30T08:49:47;100960.28;;;2.05;79.72
80382;BME280;69692;55.820;37.490;2024-01-30T08:52:13;100973.59;;;1.96;80.62
80382;BME280;69692;55.820;37.490;2024-01-30T08:54:39;100974.41;;;1.96;80.51
80382;BME280;69692;55.820;37.490;2024-01-30T08:57:05;100975.25;;;1.97;80.75
80382;BME280;69692;55.820;37.490;2024-01-30T08:59:31;100965.78;;;1.94;80.80
80382;BME280;69692;55.820;37.490;2024-01-30T09:01:57;100964.66;;;1.97;80.36
80382;BME280;69692;55.820;37.490;2024-01-30T09:04:24;100965.63;;;1.96;80.80
80382;BME280;69692;55.820;37.490;2024-01-30T09:06:51;100969.94;;;1.97;80.40
80382;BME280;69692;55.820;37.490;2024-01-30T09:09:17;100970.50;;;1.91;80.55
80382;BME280;69692;55.820;37.490;2024-01-30T09:11:44;100966.47;;;1.96;80.70
80382;BME280;69692;55.820;37.490;2024-01-30T09:14:10;100955.84;;;1.96;80.97
80382;BME280;69692;55.820;37.490;2024-01-30T09:16:36;100966.16;;;1.99;80.70
80382;BME280;69692;55.820;37.490;2024-01-30T09:19:02;100967.13;;;2.08;80.83
80382;BME280;69692;55.820;37.490;2024-01-30T09:21:27;100972.31;;;2.09;79.99
80382;BME280;69692;55.820;37.490;2024-01-30T09:24:02;100962.22;;;2.13;80.00
80382;BME280;69692;55.820;37.490;2024-01-30T09:26:30;100953.28;;;2.14;80.10
80382;BME280;69692;55.820;37.490;2024-01-30T09:28:55;100957.75;;;2.23;79.92
80382;BME280;69692;55.820;37.490;2024-01-30T09:31:21;100959.91;;;2.37;79.23
80382;BME280;69692;55.820;37.490;2024-01-30T09:33:48;100957.00;;;2.31;79.44
80382;BME280;69692;55.820;37.490;2024-01-30T09:36:15;100966.91;;;2.38;79.43
80382;BME280;69692;55.820;37.490;2024-01-30T09:38:44;100949.00;;;2.41;78.84
80382;BME280;69692;55.820;37.490;2024-01-30T09:41:10;100963.53;;;2.36;78.86
80382;BME280;69692;55.820;37.490;2024-01-30T09:43:37;100958.81;;;2.40;78.55
80382;BME280;69692;55.820;37.490;2024-01-30T09:46:08;100960.56;;;2.49;78.76
80382;BME280;69692;55.820;37.490;2024-01-30T09:48:37;100957.13;;;2.39;78.61
80382;BME280;69692;55.820;37.490;2024-01-30T09:51:04;100945.91;;;2.45;78.62
80382;BME280;69692;55.820;37.490;2024-01-30T09:53:31;100936.63;;;2.59;78.42
80382;BME280;69692;55.820;37.490;2024-01-30T09:55:57;100949.63;;;2.62;77.91
80382;BME280;69692;55.820;37.490;2024-01-30T09:58:23;100959.84;;;2.57;78.32
80382;BME280;69692;55.820;37.490;2024-01-30T10:01:08;100953.94;;;2.63;78.38
80382;BME280;69692;55.820;37.490;2024-01-30T10:03:53;100945.88;;;2.55;78.34
80382;BME280;69692;55.820;37.490;2024-01-30T10:06:19;100943.09;;;2.47;78.70
80382;BME280;69692;55.820;37.490;2024-01-30T10:08:46;100943.25;;;2.45;78.47
80382;BME280;69692;55.820;37.490;2024-01-30T10:11:12;100946.34;;;2.41;78.56
80382;BME280;69692;55.820;37.490;2024-01-30T10:13:38;100957.66;;;2.43;79.29
80382;BME280;69692;55.820;37.490;2024-01-30T10:16:06;100957.81;;;2.41;78.75
80382;BME280;69692;55.820;37.490;2024-01-30T10:18:50;100957.97;;;2.39;79.07
80382;BME280;69692;55.820;37.490;2024-01-30T10:21:16;100957.97;;;2.39;79.14
80382;BME280;69692;55.820;37.490;2024-01-30T10:23:43;100946.22;;;2.42;79.29
80382;BME280;69692;55.820;37.490;2024-01-30T10:26:10;100953.75;;;2.37;79.72
80382;BME280;69692;55.820;37.490;2024-01-30T10:28:36;100946.09;;;2.34;79.43
80382;BME280;69692;55.820;37.490;2024-01-30T10:31:02;100951.00;;;2.29;79.84
80382;BME280;69692;55.820;37.490;2024-01-30T10:33:31;100945.94;;;2.35;79.75
80382;BME280;69692;55.820;37.490;2024-01-30T10:36:02;100951.09;;;2.37;79.25
80382;BME280;69692;55.820;37.490;2024-01-30T10:38:29;100945.94;;;2.35;79.68
80382;BME280;69692;55.820;37.490;2024-01-30T10:41:01;100937.97;;;2.35;79.30
80382;BME280;69692;55.820;37.490;2024-01-30T10:43:35;100934.47;;;2.35;79.35
80382;BME280;69692;55.820;37.490;2024-01-30T10:46:18;100941.72;;;2.43;79.40
80382;BME280;69692;55.820;37.490;2024-01-30T10:48:57;100940.34;;;2.38;78.94
80382;BME280;69692;55.820;37.490;2024-01-30T10:51:28;100940.81;;;2.61;78.74
80382;BME280;69692;55.820;37.490;2024-01-30T10:53:55;100946.13;;;2.61;78.71
80382;BME280;69692;55.820;37.490;2024-01-30T10:56:22;100944.69;;;2.67;78.81
80382;BME280;69692;55.820;37.490;2024-01-30T10:58:52;100932.44;;;2.84;77.62
80382;BME280;69692;55.820;37.490;2024-01-30T11:01:20;100941.41;;;2.83;77.49
80382;BME280;69692;55.820;37.490;2024-01-30T11:03:54;100937.84;;;2.92;77.30
80382;BME280;69692;55.820;37.490;2024-01-30T11:06:25;100942.13;;;2.75;77.78
80382;BME280;69692;55.820;37.490;2024-01-30T11:09:01;100951.88;;;2.84;77.43
80382;BME280;69692;55.820;37.490;2024-01-30T11:11:52;100951.06;;;2.84;77.20
80382;BME280;69692;55.820;37.490;2024-01-30T11:14:24;100958.78;;;2.77;77.40
80382;BME280;69692;55.820;37.490;2024-01-30T11:16:50;100957.47;;;2.81;77.81
80382;BME280;69692;55.820;37.490;2024-01-30T11:19:22;100956.50;;;2.82;77.48
80382;BME280;69692;55.820;37.490;2024-01-30T11:21:50;100960.75;;;2.75;77.50
80382;BME280;69692;55.820;37.490;2024-01-30T11:24:20;100943.44;;;2.71;77.35
80382;BME280;69692;55.820;37.490;2024-01-30T11:26:55;100954.25;;;2.60;77.97
80382;BME280;69692;55.820;37.490;2024-01-30T11:29:32;100968.50;;;2.59;78.02
80382;BME280;69692;55.820;37.490;2024-01-30T11:32:00;100958.91;;;2.48;78.42
80382;BME280;69692;55.820;37.490;2024-01-30T11:34:26;100957.53;;;2.44;78.63
80382;BME280;69692;55.820;37.490;2024-01-30T11:36:55;100984.63;;;2.38;79.37
80382;BME280;69692;55.820;37.490;2024-01-30T11:39:25;100976.66;;;2.48;78.62
80382;BME280;69692;55.820;37.490;2024-01-30T11:41:52;100983.06;;;2.55;79.10
80382;BME280;69692;55.820;37.490;2024-01-30T11:44:20;100990.16;;;2.64;78.15
80382;BME280;69692;55.820;37.490;2024-01-30T11:46:50;100985.13;;;2.61;78.29
80382;BME280;69692;55.820;37.490;2024-01-30T11:49:16;100986.97;;;2.51;78.60
80382;BME280;69692;55.820;37.490;2024-01-30T11:51:45;100995.41;;;2.46;78.54
80382;BME280;69692;55.820;37.490;2024-01-30T11:54:17;100998.19;;;2.54;78.85
80382;BME280;69692;55.820;37.490;2024-01-30T11:56:43;100996.38;;;2.45;79.16
80382;BME280;69692;55.820;37.490;2024-01-30T11:59:09;100999.44;;;2.50;78.85
80382;BME280;69692;55.820;37.490;2024-01-30T12:01:35;100996.81;;;2.41;79.32
80382;BME280;69692;55.820;37.490;2024-01-30T12:04:01;100995.09;;;2.49;79.40
80382;BME280;69692;55.820;37.490;2024-01-30T12:06:28;101001.84;;;2.44;79.63
80382;BME280;69692;55.820;37.490;2024-01-30T12:09:02;100989.50;;;2.52;78.82
80382;BME280;69692;55.820;37.490;2024-01-30T12:11:46;100995.16;;;2.67;78.77
80382;BME280;69692;55.820;37.490;2024-01-30T12:14:12;101003.84;;;2.69;78.57
80382;BME280;69692;55.820;37.490;2024-01-30T12:16:39;100989.06;;;2.57;78.27
80382;BME280;69692;55.820;37.490;2024-01-30T12:19:05;100992.16;;;2.52;78.34
80382;BME280;69692;55.820;37.490;2024-01-30T12:21:31;100988.13;;;2.48;79.07
80382;BME280;69692;55.820;37.490;2024-01-30T12:23:57;101004.47;;;2.53;78.85
80382;BME280;69692;55.820;37.490;2024-01-30T12:26:24;100999.56;;;2.49;78.98
80382;BME280;69692;55.820;37.490;2024-01-30T12:28:56;100996.09;;;2.48;78.98
80382;BME280;69692;55.820;37.490;2024-01-30T12:31:28;100992.50;;;2.39;79.23
80382;BME280;69692;55.820;37.490;2024-01-30T12:33:54;100988.13;;;2.48;79.78
80382;BME280;69692;55.820;37.490;2024-01-30T12:36:21;100988.81;;;2.50;79.34
80382;BME280;69692;55.820;37.490;2024-01-30T12:38:48;100990.31;;;2.53;78.87
80382;BME280;69692;55.820;37.490;2024-01-30T12:41:14;100989.22;;;2.55;79.11
80382;BME280;69692;55.820;37.490;2024-01-30T12:43:40;100992.88;;;2.54;79.28
80382;BME280;69692;55.820;37.490;2024-01-30T12:46:06;100993.97;;;2.52;79.26
80382;BME280;69692;55.820;37.490;2024-01-30T12:48:32;100999.78;;;2.65;79.01
80382;BME280;69692;55.820;37.490;2024-01-30T12:50:59;100995.28;;;2.75;78.15
80382;BME280;69692;55.820;37.490;2024-01-30T12:53:25;100999.78;;;2.65;78.65